sensor_id;sensor_type;location;lat;lon;timestamp;P1;durP1;ratioP1;P2;durP2;ratioP2
69588;SDS011;56792;50.644;17.984;2023-07-29T00:00:28;5.90;;;3.80;;
69588;SDS011;56792;50.644;17.984;2023-07-29T00:02:57;6.20;;;4.30;;
69588;SDS011;56792;50.644;17.984;2023-07-29T00:05:25;5.80;;;3.70;;
69588;SDS011;56792;50.644;17.984;2023-07-29T00:07:53;6.20;;;4.10;;
69588;SDS011;56792;50.644;17.984;2023-07-29T00:10:22;6.00;;;4.00;;
69588;SDS011;56792;50.644;17.984;2023-07-29T00:12:50;7.20;;;4.30;;
69588;SDS011;56792;50.644;17.984;2023-07-29T00:15:19;6.80;;;4.20;;
69588;SDS011;56792;50.644;17.984;2023-07-29T00:17:47;8.30;;;4.10;;
69588;SDS011;56792;50.644;17.984;2023-07-29T00:20:16;6.50;;;3.80;;
69588;SDS011;56792;50.644;17.984;2023-07-29T00:22:44;5.70;;;3.40;;
69588;SDS011;56792;50.644;17.984;2023-07-29T00:25:13;5.20;;;3.10;;
69588;SDS011;56792;50.644;17.984;2023-07-29T00:27:41;5.90;;;3.10;;
69588;SDS011;56792;50.644;17.984;2023-07-29T00:30:11;5.50;;;3.10;;
69588;SDS011;56792;50.644;17.984;2023-07-29T00:32:39;6.30;;;3.70;;
69588;SDS011;56792;50.644;17.984;2023-07-29T00:35:09;5.30;;;3.80;;
69588;SDS011;56792;50.644;17.984;2023-07-29T00:37:37;7.00;;;3.30;;
69588;SDS011;56792;50.644;17.984;2023-07-29T00:40:14;5.10;;;3.40;;
69588;SDS011;56792;50.644;17.984;2023-07-29T00:42:48;5.40;;;3.40;;
69588;SDS011;56792;50.644;17.984;2023-07-29T00:45:17;5.70;;;4.00;;
69588;SDS011;56792;50.644;17.984;2023-07-29T00:47:46;5.50;;;3.10;;
69588;SDS011;56792;50.644;17.984;2023-07-29T00:50:17;6.50;;;3.20;;
69588;SDS011;56792;50.644;17.984;2023-07-29T00:52:46;4.90;;;3.60;;
69588;SDS011;56792;50.644;17.984;2023-07-29T00:55:16;5.10;;;3.20;;
69588;SDS011;56792;50.644;17.984;2023-07-29T00:57:46;5.50;;;3.60;;
69588;SDS011;56792;50.644;17.984;2023-07-29T01:00:16;5.10;;;3.80;;
69588;SDS011;56792;50.644;17.984;2023-07-29T01:02:44;5.20;;;3.50;;
69588;SDS011;56792;50.644;17.984;2023-07-29T01:05:15;7.00;;;3.80;;
69588;SDS011;56792;50.644;17.984;2023-07-29T01:07:49;7.10;;;4.20;;
69588;SDS011;56792;50.644;17.984;2023-07-29T01:10:31;7.20;;;4.60;;
69588;SDS011;56792;50.644;17.984;2023-07-29T01:13:16;7.00;;;4.80;;
69588;SDS011;56792;50.644;17.984;2023-07-29T01:16:01;9.50;;;5.70;;
69588;SDS011;56792;50.644;17.984;2023-07-29T01:18:37;10.40;;;5.90;;
69588;SDS011;56792;50.644;17.984;2023-07-29T01:21:08;11.20;;;5.60;;
69588;SDS011;56792;50.644;17.984;2023-07-29T01:23:38;9.90;;;6.30;;
69588;SDS011;56792;50.644;17.984;2023-07-29T01:26:06;12.60;;;6.50;;
69588;SDS011;56792;50.644;17.984;2023-07-29T01:28:35;9.50;;;6.60;;
69588;SDS011;56792;50.644;17.984;2023-07-29T01:31:10;11.20;;;6.20;;
69588;SDS011;56792;50.644;17.984;2023-07-29T01:33:48;9.50;;;6.40;;
69588;SDS011;56792;50.644;17.984;2023-07-29T01:36:22;11.10;;;5.80;;
69588;SDS011;56792;50.644;17.984;2023-07-29T01:38:55;9.60;;;6.10;;
69588;SDS011;56792;50.644;17.984;2023-07-29T01:41:25;8.70;;;5.60;;
69588;SDS011;56792;50.644;17.984;2023-07-29T01:43:54;9.00;;;5.10;;
69588;SDS011;56792;50.644;17.984;2023-07-29T01:46:24;7.10;;;4.80;;
69588;SDS011;56792;50.644;17.984;2023-07-29T01:48:52;8.50;;;5.50;;
69588;SDS011;56792;50.644;17.984;2023-07-29T01:51:20;8.00;;;5.10;;
69588;SDS011;56792;50.644;17.984;2023-07-29T01:53:49;8.50;;;5.50;;
69588;SDS011;56792;50.644;17.984;2023-07-29T01:56:17;6.90;;;4.50;;
69588;SDS011;56792;50.644;17.984;2023-07-29T01:58:53;7.30;;;5.10;;
69588;SDS011;56792;50.644;17.984;2023-07-29T02:01:21;7.50;;;5.40;;
69588;SDS011;56792;50.644;17.984;2023-07-29T02:03:49;7.10;;;5.20;;
69588;SDS011;56792;50.644;17.984;2023-07-29T02:06:22;8.70;;;5.10;;
69588;SDS011;56792;50.644;17.984;2023-07-29T02:08:52;7.30;;;4.90;;
69588;SDS011;56792;50.644;17.984;2023-07-29T02:11:21;8.60;;;5.60;;
69588;SDS011;56792;50.644;17.984;2023-07-29T02:13:54;8.40;;;5.70;;
69588;SDS011;56792;50.644;17.984;2023-07-29T02:16:24;10.50;;;5.70;;
69588;SDS011;56792;50.644;17.984;2023-07-29T02:18:52;9.00;;;5.20;;
69588;SDS011;56792;50.644;17.984;2023-07-29T02:21:21;7.00;;;5.20;;
69588;SDS011;56792;50.644;17.984;2023-07-29T02:23:49;6.50;;;5.00;;
69588;SDS011;56792;50.644;17.984;2023-07-29T02:26:17;7.50;;;5.20;;
69588;SDS011;56792;50.644;17.984;2023-07-29T02:28:46;8.30;;;5.40;;
69588;SDS011;56792;50.644;17.984;2023-07-29T02:31:17;8.30;;;5.50;;
69588;SDS011;56792;50.644;17.984;2023-07-29T02:33:48;6.10;;;4.30;;
69588;SDS011;56792;50.644;17.984;2023-07-29T02:36:17;7.50;;;5.10;;
69588;SDS011;56792;50.644;17.984;2023-07-29T02:38:45;7.60;;;4.90;;
69588;SDS011;56792;50.644;17.984;2023-07-29T02:41:14;7.70;;;5.10;;
69588;SDS011;56792;50.644;17.984;2023-07-29T02:43:43;10.00;;;5.40;;
69588;SDS011;56792;50.644;17.984;2023-07-29T02:46:16;6.10;;;4.30;;
69588;SDS011;56792;50.644;17.984;2023-07-29T02:48:45;6.10;;;4.60;;
69588;SDS011;56792;50.644;17.984;2023-07-29T02:51:14;8.00;;;4.70;;
69588;SDS011;56792;50.644;17.984;2023-07-29T02:53:42;7.70;;;4.80;;
69588;SDS011;56792;50.644;17.984;2023-07-29T02:56:10;6.10;;;4.40;;
69588;SDS011;56792;50.644;17.984;2023-07-29T02:58:39;7.60;;;5.20;;
69588;SDS011;56792;50.644;17.984;2023-07-29T03:01:07;7.30;;;4.60;;
69588;SDS011;56792;50.644;17.984;2023-07-29T03:03:36;7.20;;;5.10;;
69588;SDS011;56792;50.644;17.984;2023-07-29T03:06:05;8.20;;;5.10;;
69588;SDS011;56792;50.644;17.984;2023-07-29T03:08:35;9.10;;;5.30;;
69588;SDS011;56792;50.644;17.984;2023-07-29T03:11:06;7.70;;;5.20;;
69588;SDS011;56792;50.644;17.984;2023-07-29T03:13:36;7.90;;;4.70;;
69588;SDS011;56792;50.644;17.984;2023-07-29T03:16:08;7.40;;;5.20;;
69588;SDS011;56792;50.644;17.984;2023-07-29T03:18:38;7.30;;;4.80;;
69588;SDS011;56792;50.644;17.984;2023-07-29T03:21:07;8.30;;;4.80;;
69588;SDS011;56792;50.644;17.984;2023-07-29T03:23:36;7.20;;;5.00;;
69588;SDS011;56792;50.644;17.984;2023-07-29T03:26:05;6.60;;;4.70;;
69588;SDS011;56792;50.644;17.984;2023-07-29T03:28:38;8.00;;;4.20;;
69588;SDS011;56792;50.644;17.984;2023-07-29T03:31:08;7.00;;;4.90;;
69588;SDS011;56792;50.644;17.984;2023-07-29T03:33:37;5.80;;;4.70;;
69588;SDS011;56792;50.644;17.984;2023-07-29T03:36:05;7.20;;;4.40;;
69588;SDS011;56792;50.644;17.984;2023-07-29T03:38:34;5.60;;;4.30;;
69588;SDS011;56792;50.644;17.984;2023-07-29T03:41:06;8.00;;;4.80;;
69588;SDS011;56792;50.644;17.984;2023-07-29T03:43:35;6.90;;;4.90;;
69588;SDS011;56792;50.644;17.984;2023-07-29T03:46:04;7.60;;;5.50;;
69588;SDS011;56792;50.644;17.984;2023-07-29T03:48:33;7.60;;;5.20;;
69588;SDS011;56792;50.644;17.984;2023-07-29T03:51:01;6.50;;;4.80;;
69588;SDS011;56792;50.644;17.984;2023-07-29T03:53:29;7.70;;;5.10;;
69588;SDS011;56792;50.644;17.984;2023-07-29T03:55:58;6.60;;;4.90;;
69588;SDS011;56792;50.644;17.984;2023-07-29T03:58:26;7.90;;;5.10;;
69588;SDS011;56792;50.644;17.984;2023-07-29T04:00:54;7.20;;;5.20;;
69588;SDS011;56792;50.644;17.984;2023-07-29T04:03:23;8.50;;;5.60;;
69588;SDS011;56792;50.644;17.984;2023-07-29T04:05:52;7.40;;;5.30;;
69588;SDS011;56792;50.644;17.984;2023-07-29T04:08:21;8.90;;;5.50;;
69588;SDS011;56792;50.644;17.984;2023-07-29T04:10:49;8.10;;;5.90;;
69588;SDS011;56792;50.644;17.984;2023-07-29T04:13:17;7.00;;;5.00;;
69588;SDS011;56792;50.644;17.984;2023-07-29T04:15:46;7.10;;;5.80;;
69588;SDS011;56792;50.644;17.984;2023-07-29T04:18:14;7.30;;;5.00;;
69588;SDS011;56792;50.644;17.984;2023-07-29T04:20:43;7.20;;;5.10;;
69588;SDS011;56792;50.644;17.984;2023-07-29T04:23:11;8.50;;;5.80;;
69588;SDS011;56792;50.644;17.984;2023-07-29T04:25:40;9.20;;;5.40;;
69588;SDS011;56792;50.644;17.984;2023-07-29T04:28:08;7.50;;;5.70;;
69588;SDS011;56792;50.644;17.984;2023-07-29T04:30:36;8.50;;;5.40;;
69588;SDS011;56792;50.644;17.984;2023-07-29T04:33:05;9.60;;;6.90;;
69588;SDS011;56792;50.644;17.984;2023-07-29T04:35:33;9.50;;;7.50;;
69588;SDS011;56792;50.644;17.984;2023-07-29T04:38:02;11.50;;;7.30;;
69588;SDS011;56792;50.644;17.984;2023-07-29T04:40:33;14.50;;;7.80;;
69588;SDS011;56792;50.644;17.984;2023-07-29T04:43:01;12.90;;;7.80;;
69588;SDS011;56792;50.644;17.984;2023-07-29T04:45:30;15.10;;;8.30;;
69588;SDS011;56792;50.644;17.984;2023-07-29T04:47:59;13.40;;;8.70;;
69588;SDS011;56792;50.644;17.984;2023-07-29T04:50:27;12.40;;;7.80;;
69588;SDS011;56792;50.644;17.984;2023-07-29T04:52:56;12.10;;;8.40;;
69588;SDS011;56792;50.644;17.984;2023-07-29T04:55:24;11.10;;;7.20;;
69588;SDS011;56792;50.644;17.984;2023-07-29T04:57:53;11.50;;;8.00;;
69588;SDS011;56792;50.644;17.984;2023-07-29T05:00:22;11.80;;;7.00;;
69588;SDS011;56792;50.644;17.984;2023-07-29T05:02:51;12.70;;;6.90;;
69588;SDS011;56792;50.644;17.984;2023-07-29T05:05:19;14.10;;;7.70;;
69588;SDS011;56792;50.644;17.984;2023-07-29T05:07:48;11.00;;;7.70;;
69588;SDS011;56792;50.644;17.984;2023-07-29T05:10:16;11.80;;;7.50;;
69588;SDS011;56792;50.644;17.984;2023-07-29T05:12:45;10.00;;;6.80;;
69588;SDS011;56792;50.644;17.984;2023-07-29T05:15:13;10.80;;;7.10;;
69588;SDS011;56792;50.644;17.984;2023-07-29T05:17:41;9.00;;;6.90;;
69588;SDS011;56792;50.644;17.984;2023-07-29T05:20:11;10.10;;;6.80;;
69588;SDS011;56792;50.644;17.984;2023-07-29T05:22:39;9.60;;;6.80;;
69588;SDS011;56792;50.644;17.984;2023-07-29T05:25:08;12.20;;;6.90;;
69588;SDS011;56792;50.644;17.984;2023-07-29T05:27:37;11.10;;;6.60;;
69588;SDS011;56792;50.644;17.984;2023-07-29T05:30:08;9.00;;;6.10;;
69588;SDS011;56792;50.644;17.984;2023-07-29T05:32:37;9.60;;;6.50;;
69588;SDS011;56792;50.644;17.984;2023-07-29T05:35:07;8.50;;;6.20;;
69588;SDS011;56792;50.644;17.984;2023-07-29T05:37:38;9.50;;;5.50;;
69588;SDS011;56792;50.644;17.984;2023-07-29T05:40:08;7.60;;;5.80;;
69588;SDS011;56792;50.644;17.984;2023-07-29T05:42:38;9.30;;;5.50;;
69588;SDS011;56792;50.644;17.984;2023-07-29T05:45:08;8.50;;;5.70;;
69588;SDS011;56792;50.644;17.984;2023-07-29T05:47:37;6.90;;;5.60;;
69588;SDS011;56792;50.644;17.984;2023-07-29T05:50:07;8.20;;;5.70;;
69588;SDS011;56792;50.644;17.984;2023-07-29T05:52:37;8.30;;;5.30;;
69588;SDS011;56792;50.644;17.984;2023-07-29T05:55:07;8.80;;;5.20;;
69588;SDS011;56792;50.644;17.984;2023-07-29T05:57:36;8.20;;;4.90;;
69588;SDS011;56792;50.644;17.984;2023-07-29T06:00:09;6.60;;;4.90;;
69588;SDS011;56792;50.644;17.984;2023-07-29T06:02:41;6.90;;;5.20;;
69588;SDS011;56792;50.644;17.984;2023-07-29T06:05:10;6.70;;;4.60;;
69588;SDS011;56792;50.644;17.984;2023-07-29T06:07:39;7.20;;;4.80;;
69588;SDS011;56792;50.644;17.984;2023-07-29T06:10:13;6.90;;;4.80;;
69588;SDS011;56792;50.644;17.984;2023-07-29T06:12:44;8.00;;;5.30;;
69588;SDS011;56792;50.644;17.984;2023-07-29T06:15:13;9.20;;;5.30;;
69588;SDS011;56792;50.644;17.984;2023-07-29T06:17:42;6.80;;;3.90;;
69588;SDS011;56792;50.644;17.984;2023-07-29T06:20:11;6.10;;;4.20;;
69588;SDS011;56792;50.644;17.984;2023-07-29T06:22:40;8.20;;;4.70;;
69588;SDS011;56792;50.644;17.984;2023-07-29T06:25:09;5.10;;;3.70;;
69588;SDS011;56792;50.644;17.984;2023-07-29T06:27:39;5.70;;;3.40;;
69588;SDS011;56792;50.644;17.984;2023-07-29T06:30:08;4.80;;;3.50;;
69588;SDS011;56792;50.644;17.984;2023-07-29T06:32:37;4.50;;;3.70;;
69588;SDS011;56792;50.644;17.984;2023-07-29T06:35:07;4.10;;;2.90;;
69588;SDS011;56792;50.644;17.984;2023-07-29T06:37:35;4.90;;;2.90;;
69588;SDS011;56792;50.644;17.984;2023-07-29T06:40:06;4.40;;;3.10;;
69588;SDS011;56792;50.644;17.984;2023-07-29T06:42:35;4.00;;;3.20;;
69588;SDS011;56792;50.644;17.984;2023-07-29T06:45:06;4.70;;;3.00;;
69588;SDS011;56792;50.644;17.984;2023-07-29T06:47:35;3.70;;;2.50;;
69588;SDS011;56792;50.644;17.984;2023-07-29T06:50:05;4.60;;;2.70;;
69588;SDS011;56792;50.644;17.984;2023-07-29T06:52:34;4.20;;;2.80;;
69588;SDS011;56792;50.644;17.984;2023-07-29T06:55:04;4.20;;;2.90;;
69588;SDS011;56792;50.644;17.984;2023-07-29T06:57:33;4.80;;;2.90;;
69588;SDS011;56792;50.644;17.984;2023-07-29T07:00:02;4.20;;;2.70;;
69588;SDS011;56792;50.644;17.984;2023-07-29T07:02:31;4.50;;;2.20;;
69588;SDS011;56792;50.644;17.984;2023-07-29T07:04:59;4.90;;;2.40;;
69588;SDS011;56792;50.644;17.984;2023-07-29T07:07:28;3.40;;;2.30;;
69588;SDS011;56792;50.644;17.984;2023-07-29T07:09:57;4.80;;;1.90;;
69588;SDS011;56792;50.644;17.984;2023-07-29T07:12:25;3.50;;;2.10;;
69588;SDS011;56792;50.644;17.984;2023-07-29T07:14:53;3.30;;;2.00;;
69588;SDS011;56792;50.644;17.984;2023-07-29T07:17:22;4.10;;;2.10;;
69588;SDS011;56792;50.644;17.984;2023-07-29T07:19:50;2.80;;;1.70;;
69588;SDS011;56792;50.644;17.984;2023-07-29T07:22:19;3.30;;;1.90;;
69588;SDS011;56792;50.644;17.984;2023-07-29T07:24:47;4.60;;;2.00;;
69588;SDS011;56792;50.644;17.984;2023-07-29T07:27:15;3.10;;;2.00;;
69588;SDS011;56792;50.644;17.984;2023-07-29T07:29:44;4.50;;;2.10;;
69588;SDS011;56792;50.644;17.984;2023-07-29T07:32:12;3.70;;;2.20;;
69588;SDS011;56792;50.644;17.984;2023-07-29T07:34:40;4.00;;;2.20;;
69588;SDS011;56792;50.644;17.984;2023-07-29T07:37:09;3.20;;;2.10;;
69588;SDS011;56792;50.644;17.984;2023-07-29T07:39:37;2.90;;;1.90;;
69588;SDS011;56792;50.644;17.984;2023-07-29T07:42:06;3.40;;;2.00;;
69588;SDS011;56792;50.644;17.984;2023-07-29T07:44:35;4.10;;;1.70;;
69588;SDS011;56792;50.644;17.984;2023-07-29T07:47:03;4.50;;;1.90;;
69588;SDS011;56792;50.644;17.984;2023-07-29T07:49:32;3.60;;;1.70;;
69588;SDS011;56792;50.644;17.984;2023-07-29T07:52:00;3.10;;;2.00;;
69588;SDS011;56792;50.644;17.984;2023-07-29T07:54:29;3.00;;;1.90;;
69588;SDS011;56792;50.644;17.984;2023-07-29T07:56:57;3.30;;;2.10;;
69588;SDS011;56792;50.644;17.984;2023-07-29T07:59:26;3.10;;;2.00;;
69588;SDS011;56792;50.644;17.984;2023-07-29T08:01:54;3.50;;;2.00;;
69588;SDS011;56792;50.644;17.984;2023-07-29T08:04:22;3.70;;;2.20;;
69588;SDS011;56792;50.644;17.984;2023-07-29T08:06:51;3.30;;;2.20;;
69588;SDS011;56792;50.644;17.984;2023-07-29T08:09:19;3.10;;;2.00;;
69588;SDS011;56792;50.644;17.984;2023-07-29T08:11:48;3.00;;;1.80;;
69588;SDS011;56792;50.644;17.984;2023-07-29T08:14:16;3.40;;;1.90;;
69588;SDS011;56792;50.644;17.984;2023-07-29T08:16:44;3.00;;;1.80;;
69588;SDS011;56792;50.644;17.984;2023-07-29T08:19:13;3.30;;;2.20;;
69588;SDS011;56792;50.644;17.984;2023-07-29T08:21:41;4.40;;;2.30;;
69588;SDS011;56792;50.644;17.984;2023-07-29T08:24:09;3.60;;;1.90;;
69588;SDS011;56792;50.644;17.984;2023-07-29T08:26:38;4.50;;;2.20;;
69588;SDS011;56792;50.644;17.984;2023-07-29T08:29:06;3.20;;;2.10;;
69588;SDS011;56792;50.644;17.984;2023-07-29T08:31:34;3.10;;;1.90;;
69588;SDS011;56792;50.644;17.984;2023-07-29T08:34:03;3.40;;;2.00;;
69588;SDS011;56792;50.644;17.984;2023-07-29T08:36:31;3.30;;;1.90;;
69588;SDS011;56792;50.644;17.984;2023-07-29T08:38:59;3.80;;;2.10;;
69588;SDS011;56792;50.644;17.984;2023-07-29T08:41:31;3.00;;;1.90;;
69588;SDS011;56792;50.644;17.984;2023-07-29T08:44:09;3.10;;;1.90;;
69588;SDS011;56792;50.644;17.984;2023-07-29T08:46:42;3.70;;;2.10;;
69588;SDS011;56792;50.644;17.984;2023-07-29T08:49:13;2.90;;;1.90;;
69588;SDS011;56792;50.644;17.984;2023-07-29T08:51:45;4.50;;;1.80;;
69588;SDS011;56792;50.644;17.984;2023-07-29T08:54:15;3.20;;;2.10;;
69588;SDS011;56792;50.644;17.984;2023-07-29T08:56:44;3.20;;;1.70;;
69588;SDS011;56792;50.644;17.984;2023-07-29T08:59:13;3.90;;;2.00;;
69588;SDS011;56792;50.644;17.984;2023-07-29T09:01:43;4.00;;;2.10;;
69588;SDS011;56792;50.644;17.984;2023-07-29T09:04:12;3.60;;;1.60;;
69588;SDS011;56792;50.644;17.984;2023-07-29T09:06:43;3.60;;;2.00;;
69588;SDS011;56792;50.644;17.984;2023-07-29T09:09:14;3.00;;;2.10;;
69588;SDS011;56792;50.644;17.984;2023-07-29T09:11:44;3.10;;;2.10;;
69588;SDS011;56792;50.644;17.984;2023-07-29T09:14:14;3.20;;;2.00;;
69588;SDS011;56792;50.644;17.984;2023-07-29T09:16:42;3.00;;;2.10;;
69588;SDS011;56792;50.644;17.984;2023-07-29T09:19:11;3.40;;;2.20;;
69588;SDS011;56792;50.644;17.984;2023-07-29T09:21:40;3.00;;;2.10;;
69588;SDS011;56792;50.644;17.984;2023-07-29T09:24:09;3.30;;;1.90;;
69588;SDS011;56792;50.644;17.984;2023-07-29T09:26:41;3.40;;;2.00;;
69588;SDS011;56792;50.644;17.984;2023-07-29T09:29:16;4.00;;;2.00;;
69588;SDS011;56792;50.644;17.984;2023-07-29T09:31:50;2.90;;;2.10;;
69588;SDS011;56792;50.644;17.984;2023-07-29T09:34:18;3.20;;;2.30;;
69588;SDS011;56792;50.644;17.984;2023-07-29T09:36:46;3.30;;;1.90;;
69588;SDS011;56792;50.644;17.984;2023-07-29T09:39:18;5.00;;;2.20;;
69588;SDS011;56792;50.644;17.984;2023-07-29T09:41:51;3.80;;;2.00;;
69588;SDS011;56792;50.644;17.984;2023-07-29T09:44:20;3.70;;;2.00;;
69588;SDS011;56792;50.644;17.984;2023-07-29T09:46:48;3.00;;;2.00;;
69588;SDS011;56792;50.644;17.984;2023-07-29T09:49:16;3.50;;;2.00;;
69588;SDS011;56792;50.644;17.984;2023-07-29T09:51:44;5.70;;;1.90;;
69588;SDS011;56792;50.644;17.984;2023-07-29T09:54:13;3.10;;;1.90;;
69588;SDS011;56792;50.644;17.984;2023-07-29T09:56:42;3.20;;;1.90;;
69588;SDS011;56792;50.644;17.984;2023-07-29T09:59:11;3.00;;;1.90;;
69588;SDS011;56792;50.644;17.984;2023-07-29T10:01:40;3.00;;;1.80;;
69588;SDS011;56792;50.644;17.984;2023-07-29T10:04:09;2.30;;;1.40;;
69588;SDS011;56792;50.644;17.984;2023-07-29T10:06:40;4.10;;;2.40;;
69588;SDS011;56792;50.644;17.984;2023-07-29T10:09:11;2.90;;;1.80;;
69588;SDS011;56792;50.644;17.984;2023-07-29T10:11:41;3.00;;;2.00;;
69588;SDS011;56792;50.644;17.984;2023-07-29T10:14:11;3.20;;;1.70;;
69588;SDS011;56792;50.644;17.984;2023-07-29T10:16:40;5.30;;;2.00;;
69588;SDS011;56792;50.644;17.984;2023-07-29T10:19:12;3.20;;;2.00;;
69588;SDS011;56792;50.644;17.984;2023-07-29T10:21:45;3.50;;;2.10;;
69588;SDS011;56792;50.644;17.984;2023-07-29T10:24:19;2.90;;;1.90;;
69588;SDS011;56792;50.644;17.984;2023-07-29T10:26:58;3.30;;;2.00;;
69588;SDS011;56792;50.644;17.984;2023-07-29T10:29:31;4.30;;;1.60;;
69588;SDS011;56792;50.644;17.984;2023-07-29T10:32:05;3.20;;;1.80;;
69588;SDS011;56792;50.644;17.984;2023-07-29T10:34:36;3.90;;;2.20;;
69588;SDS011;56792;50.644;17.984;2023-07-29T10:37:06;3.30;;;2.10;;
69588;SDS011;56792;50.644;17.984;2023-07-29T10:39:39;3.70;;;2.00;;
69588;SDS011;56792;50.644;17.984;2023-07-29T10:42:09;4.50;;;2.50;;
69588;SDS011;56792;50.644;17.984;2023-07-29T10:44:48;3.10;;;2.00;;
69588;SDS011;56792;50.644;17.984;2023-07-29T10:47:18;6.60;;;2.00;;
69588;SDS011;56792;50.644;17.984;2023-07-29T10:49:51;3.80;;;2.20;;
69588;SDS011;56792;50.644;17.984;2023-07-29T10:52:40;3.50;;;1.80;;
69588;SDS011;56792;50.644;17.984;2023-07-29T10:55:27;3.20;;;2.00;;
69588;SDS011;56792;50.644;17.984;2023-07-29T10:58:08;3.50;;;1.90;;
69588;SDS011;56792;50.644;17.984;2023-07-29T11:00:40;2.90;;;1.90;;
69588;SDS011;56792;50.644;17.984;2023-07-29T11:03:11;3.80;;;2.00;;
69588;SDS011;56792;50.644;17.984;2023-07-29T11:05:48;3.20;;;2.10;;
69588;SDS011;56792;50.644;17.984;2023-07-29T11:08:23;3.20;;;2.00;;
69588;SDS011;56792;50.644;17.984;2023-07-29T11:11:01;3.30;;;1.90;;
69588;SDS011;56792;50.644;17.984;2023-07-29T11:13:32;3.20;;;2.10;;
69588;SDS011;56792;50.644;17.984;2023-07-29T11:16:01;3.40;;;2.30;;
69588;SDS011;56792;50.644;17.984;2023-07-29T11:18:31;3.30;;;2.20;;
69588;SDS011;56792;50.644;17.984;2023-07-29T11:21:01;3.50;;;2.00;;
69588;SDS011;56792;50.644;17.984;2023-07-29T11:23:32;3.30;;;2.30;;
69588;SDS011;56792;50.644;17.984;2023-07-29T11:26:01;3.00;;;2.30;;
69588;SDS011;56792;50.644;17.984;2023-07-29T11:28:31;3.40;;;2.10;;
69588;SDS011;56792;50.644;17.984;2023-07-29T11:31:06;3.30;;;1.70;;
69588;SDS011;56792;50.644;17.984;2023-07-29T11:33:34;3.10;;;1.80;;
69588;SDS011;56792;50.644;17.984;2023-07-29T11:36:06;3.90;;;2.00;;
69588;SDS011;56792;50.644;17.984;2023-07-29T11:38:45;3.70;;;2.20;;
69588;SDS011;56792;50.644;17.984;2023-07-29T11:41:18;3.70;;;2.30;;
69588;SDS011;56792;50.644;17.984;2023-07-29T11:43:48;2.90;;;1.70;;
69588;SDS011;56792;50.644;17.984;2023-07-29T11:46:21;2.90;;;1.70;;
69588;SDS011;56792;50.644;17.984;2023-07-29T11:48:50;3.80;;;1.80;;
69588;SDS011;56792;50.644;17.984;2023-07-29T11:51:20;3.60;;;1.70;;
69588;SDS011;56792;50.644;17.984;2023-07-29T11:53:50;3.10;;;2.00;;
69588;SDS011;56792;50.644;17.984;2023-07-29T11:56:20;4.30;;;1.60;;
69588;SDS011;56792;50.644;17.984;2023-07-29T11:58:48;3.20;;;1.80;;
69588;SDS011;56792;50.644;17.984;2023-07-29T12:01:17;3.30;;;1.60;;
69588;SDS011;56792;50.644;17.984;2023-07-29T12:03:46;3.90;;;2.10;;
69588;SDS011;56792;50.644;17.984;2023-07-29T12:06:14;2.90;;;1.90;;
69588;SDS011;56792;50.644;17.984;2023-07-29T12:08:43;3.60;;;2.30;;
69588;SDS011;56792;50.644;17.984;2023-07-29T12:11:12;3.60;;;1.90;;
69588;SDS011;56792;50.644;17.984;2023-07-29T12:13:42;4.10;;;2.50;;
69588;SDS011;56792;50.644;17.984;2023-07-29T12:16:16;3.90;;;2.60;;
69588;SDS011;56792;50.644;17.984;2023-07-29T12:18:45;4.20;;;3.10;;
69588;SDS011;56792;50.644;17.984;2023-07-29T12:21:15;3.90;;;2.20;;
69588;SDS011;56792;50.644;17.984;2023-07-29T12:23:44;3.60;;;2.00;;
69588;SDS011;56792;50.644;17.984;2023-07-29T12:26:12;3.40;;;2.30;;
69588;SDS011;56792;50.644;17.984;2023-07-29T12:28:46;3.50;;;1.80;;
69588;SDS011;56792;50.644;17.984;2023-07-29T12:31:15;4.50;;;2.10;;
69588;SDS011;56792;50.644;17.984;2023-07-29T12:33:43;3.50;;;1.70;;
69588;SDS011;56792;50.644;17.984;2023-07-29T12:36:11;2.90;;;1.80;;
69588;SDS011;56792;50.644;17.984;2023-07-29T12:38:40;4.00;;;1.70;;
69588;SDS011;56792;50.644;17.984;2023-07-29T12:41:11;3.30;;;2.90;;
69588;SDS011;56792;50.644;17.984;2023-07-29T12:43:39;3.70;;;3.10;;
69588;SDS011;56792;50.644;17.984;2023-07-29T12:46:10;3.30;;;2.80;;
69588;SDS011;56792;50.644;17.984;2023-07-29T12:48:38;3.90;;;3.60;;
69588;SDS011;56792;50.644;17.984;2023-07-29T12:51:07;4.30;;;3.30;;
69588;SDS011;56792;50.644;17.984;2023-07-29T12:53:35;3.70;;;3.30;;
69588;SDS011;56792;50.644;17.984;2023-07-29T12:56:05;3.80;;;3.30;;
69588;SDS011;56792;50.644;17.984;2023-07-29T12:58:34;4.50;;;3.60;;
69588;SDS011;56792;50.644;17.984;2023-07-29T13:01:02;4.20;;;2.90;;
69588;SDS011;56792;50.644;17.984;2023-07-29T13:03:30;3.40;;;2.90;;
69588;SDS011;56792;50.644;17.984;2023-07-29T13:05:59;3.40;;;3.00;;
69588;SDS011;56792;50.644;17.984;2023-07-29T13:08:27;4.10;;;3.10;;
69588;SDS011;56792;50.644;17.984;2023-07-29T13:10:58;4.40;;;3.00;;
69588;SDS011;56792;50.644;17.984;2023-07-29T13:13:26;3.60;;;3.00;;
69588;SDS011;56792;50.644;17.984;2023-07-29T13:15:54;3.50;;;2.80;;
69588;SDS011;56792;50.644;17.984;2023-07-29T13:18:23;3.60;;;2.90;;
69588;SDS011;56792;50.644;17.984;2023-07-29T13:20:51;4.30;;;2.80;;
69588;SDS011;56792;50.644;17.984;2023-07-29T13:23:19;4.20;;;2.90;;
69588;SDS011;56792;50.644;17.984;2023-07-29T13:25:48;4.00;;;2.60;;
69588;SDS011;56792;50.644;17.984;2023-07-29T13:28:17;3.30;;;2.60;;
69588;SDS011;56792;50.644;17.984;2023-07-29T13:30:46;3.50;;;2.80;;
69588;SDS011;56792;50.644;17.984;2023-07-29T13:33:14;3.40;;;2.70;;
69588;SDS011;56792;50.644;17.984;2023-07-29T13:35:43;3.80;;;2.50;;
69588;SDS011;56792;50.644;17.984;2023-07-29T13:38:11;3.70;;;2.80;;
69588;SDS011;56792;50.644;17.984;2023-07-29T13:40:40;4.10;;;2.90;;
69588;SDS011;56792;50.644;17.984;2023-07-29T13:43:08;4.00;;;3.00;;
69588;SDS011;56792;50.644;17.984;2023-07-29T13:45:36;3.40;;;2.90;;
69588;SDS011;56792;50.644;17.984;2023-07-29T13:48:05;3.50;;;3.00;;
69588;SDS011;56792;50.644;17.984;2023-07-29T13:50:33;5.10;;;2.70;;
69588;SDS011;56792;50.644;17.984;2023-07-29T13:53:02;4.30;;;2.80;;
69588;SDS011;56792;50.644;17.984;2023-07-29T13:55:30;3.60;;;2.90;;
69588;SDS011;56792;50.644;17.984;2023-07-29T13:57:58;4.30;;;3.00;;
69588;SDS011;56792;50.644;17.984;2023-07-29T14:00:27;4.00;;;2.90;;
69588;SDS011;56792;50.644;17.984;2023-07-29T14:02:55;3.70;;;2.90;;
69588;SDS011;56792;50.644;17.984;2023-07-29T14:05:24;3.90;;;3.00;;
69588;SDS011;56792;50.644;17.984;2023-07-29T14:07:52;4.60;;;3.20;;
69588;SDS011;56792;50.644;17.984;2023-07-29T14:10:20;4.70;;;3.70;;
69588;SDS011;56792;50.644;17.984;2023-07-29T14:12:49;5.00;;;3.80;;
69588;SDS011;56792;50.644;17.984;2023-07-29T14:15:18;3.90;;;3.40;;
69588;SDS011;56792;50.644;17.984;2023-07-29T14:17:48;4.30;;;3.20;;
69588;SDS011;56792;50.644;17.984;2023-07-29T14:20:17;3.90;;;3.50;;
69588;SDS011;56792;50.644;17.984;2023-07-29T14:22:46;4.00;;;3.50;;
69588;SDS011;56792;50.644;17.984;2023-07-29T14:25:14;4.60;;;3.80;;
69588;SDS011;56792;50.644;17.984;2023-07-29T14:27:43;5.20;;;3.60;;
69588;SDS011;56792;50.644;17.984;2023-07-29T14:30:12;4.10;;;3.40;;
69588;SDS011;56792;50.644;17.984;2023-07-29T14:32:40;4.80;;;3.10;;
69588;SDS011;56792;50.644;17.984;2023-07-29T14:35:09;3.60;;;2.80;;
69588;SDS011;56792;50.644;17.984;2023-07-29T14:37:37;2.80;;;2.00;;
69588;SDS011;56792;50.644;17.984;2023-07-29T14:40:07;3.80;;;2.30;;
69588;SDS011;56792;50.644;17.984;2023-07-29T14:42:36;3.60;;;2.40;;
69588;SDS011;56792;50.644;17.984;2023-07-29T14:45:06;4.00;;;2.50;;
69588;SDS011;56792;50.644;17.984;2023-07-29T14:47:35;3.10;;;2.20;;